Time;durP1;ratioP1;P1;durP2;ratioP2;P2;SDS_P1;SDS_P2;PMS_P1;PMS_P2;Temp;Humidity;BMP_temperature;BMP_pressure;BME280_temperature;BME280_humidity;BME280_pressure;Samples;Min_cycle;Max_cycle;Signal;HPM_P1;HPM_P2
2023/03/03 00:00:24;;;;;;;24.77;11.88;;;;;;;;;;4985938;28;20392;-78
2023/03/03 00:02:50;;;;;;;24.60;11.63;;;;;;;;;;4976624;28;20046;-78
2023/03/03 00:05:17;;;;;;;21.92;10.70;;;;;;;;;;4995074;28;20879;-77
2023/03/03 00:07:44;;;;;;;24.50;11.25;;;;;;;;;;5002132;28;20042;-78
2023/03/03 00:10:10;;;;;;;24.50;11.00;;;;;;;;;;4996620;28;20038;-79
2023/03/03 00:12:45;;;;;;;21.60;10.63;;;;;;;;;;4994118;28;20536;-77
2023/03/03 00:15:16;;;;;;;23.90;10.40;;;;;;;;;;4979528;28;20172;-78
2023/03/03 00:17:42;;;;;;;23.83;9.95;;;;;;;;;;4994959;28;20036;-77
2023/03/03 00:20:30;;;;;;;21.33;10.60;;;;;;;;;;5008185;28;20034;-78
2023/03/03 00:23:12;;;;;;;20.20;9.13;;;;;;;;;;5001432;28;20529;-76
2023/03/03 00:25:41;;;;;;;20.70;10.20;;;;;;;;;;4977671;28;20397;-76
2023/03/03 00:28:19;;;;;;;19.17;9.45;;;;;;;;;;5001933;28;20042;-77
2023/03/03 00:30:44;;;;;;;;;;;;;;;;;;4981632;28;20092;-77
2023/03/03 00:33:33;;;;;;;20.83;9.75;;;;;;;;;;5002041;28;19921;-77
2023/03/03 00:36:14;;;;;;;22.02;9.45;;;;;;;;;;4992088;28;20045;-77
2023/03/03 00:38:39;;;;;;;21.27;10.43;;;;;;;;;;4994109;28;20050;-76
2023/03/03 00:41:16;;;;;;;24.38;11.32;;;;;;;;;;4990902;28;20046;-77
2023/03/03 00:43:42;;;;;;;;;;;;;;;;;;4983674;28;20036;-76
2023/03/03 00:46:08;;;;;;;23.27;10.25;;;;;;;;;;5006911;28;20381;-77
2023/03/03 00:48:37;;;;;;;23.60;11.02;;;;;;;;;;4996373;28;20030;-76
2023/03/03 00:51:18;;;;;;;24.90;11.75;;;;;;;;;;4995409;28;20049;-77
2023/03/03 00:53:43;;;;;;;20.23;9.73;;;;;;;;;;4995439;28;20034;-77
2023/03/03 00:56:08;;;;;;;23.02;9.95;;;;;;;;;;4985152;28;20046;-77
2023/03/03 00:58:34;;;;;;;20.30;10.38;;;;;;;;;;4985717;28;20140;-77
2023/03/03 01:00:59;;;;;;;21.17;10.35;;;;;;;;;;4995369;28;20037;-77
2023/03/03 01:03:25;;;;;;;20.10;9.75;;;;;;;;;;5006969;28;20443;-77
2023/03/03 01:05:52;;;;;;;18.92;9.30;;;;;;;;;;5007167;28;20393;-77
2023/03/03 01:08:18;;;;;;;20.92;10.27;;;;;;;;;;4995792;28;20060;-77
2023/03/03 01:10:52;;;;;;;19.35;9.20;;;;;;;;;;4993568;28;20061;-77
2023/03/03 01:13:31;;;;;;;20.73;9.10;;;;;;;;;;4994431;28;20038;-76
2023/03/03 01:15:57;;;;;;;22.08;9.95;;;;;;;;;;5007328;28;20406;-76
2023/03/03 01:18:23;;;;;;;18.58;8.85;;;;;;;;;;4992606;28;20034;-77
2023/03/03 01:20:48;;;;;;;20.10;9.13;;;;;;;;;;4998190;28;20032;-77
2023/03/03 01:23:13;;;;;;;18.85;9.18;;;;;;;;;;5001153;28;20490;-77
2023/03/03 01:25:39;;;;;;;18.35;9.30;;;;;;;;;;5001776;28;20529;-76
2023/03/03 01:28:04;;;;;;;21.75;9.43;;;;;;;;;;4979424;28;20042;-77
2023/03/03 01:30:33;;;;;;;21.40;11.05;;;;;;;;;;4991198;28;20092;-77
2023/03/03 01:32:58;;;;;;;22.25;10.13;;;;;;;;;;5000648;28;20053;-77
2023/03/03 01:35:24;;;;;;;23.08;10.93;;;;;;;;;;4996040;28;20041;-77
2023/03/03 01:37:49;;;;;;;23.17;11.07;;;;;;;;;;5010168;28;20046;-77
2023/03/03 01:40:23;;;;;;;21.63;10.50;;;;;;;;;;4989547;28;20469;-77
2023/03/03 01:42:48;;;;;;;23.02;9.80;;;;;;;;;;4995545;28;20044;-76
2023/03/03 01:45:19;;;;;;;22.77;11.25;;;;;;;;;;4984388;28;20422;-76
2023/03/03 01:47:49;;;;;;;19.85;9.52;;;;;;;;;;4995479;28;20046;-76
2023/03/03 01:50:24;;;;;;;22.42;10.52;;;;;;;;;;5006250;28;20437;-77
2023/03/03 01:52:49;;;;;;;23.10;10.52;;;;;;;;;;4990835;28;20038;-78
2023/03/03 01:55:20;;;;;;;22.95;10.45;;;;;;;;;;4991093;28;20042;-76
2023/03/03 01:58:04;;;;;;;23.23;10.77;;;;;;;;;;4992314;28;20428;-76
2023/03/03 02:00:31;;;;;;;20.55;10.02;;;;;;;;;;5007104;28;20109;-76
2023/03/03 02:02:56;;;;;;;23.85;10.80;;;;;;;;;;4982830;28;20124;-77
2023/03/03 02:05:22;;;;;;;23.80;10.50;;;;;;;;;;4991408;28;20129;-77
2023/03/03 02:07:47;;;;;;;26.73;10.93;;;;;;;;;;4985539;28;20050;-77
2023/03/03 02:10:16;;;;;;;21.85;10.25;;;;;;;;;;4999303;28;20084;-77
2023/03/03 02:12:59;;;;;;;23.30;10.73;;;;;;;;;;4995418;28;20044;-77
2023/03/03 02:15:31;;;;;;;20.20;8.90;;;;;;;;;;4999337;28;20042;-77
2023/03/03 02:17:58;;;;;;;21.48;9.90;;;;;;;;;;4991761;28;20038;-77
2023/03/03 02:20:39;;;;;;;23.67;10.48;;;;;;;;;;4984605;28;20122;-77
2023/03/03 02:23:05;;;;;;;24.98;10.52;;;;;;;;;;5011189;28;20042;-77
2023/03/03 02:25:39;;;;;;;25.23;11.30;;;;;;;;;;5009867;28;20033;-77
2023/03/03 02:28:04;;;;;;;25.27;11.40;;;;;;;;;;4992210;28;20030;-77
2023/03/03 02:30:30;;;;;;;21.90;10.27;;;;;;;;;;4994518;28;20104;-77
2023/03/03 02:32:55;;;;;;;21.17;10.45;;;;;;;;;;4974781;28;20046;-77
2023/03/03 02:35:25;;;;;;;22.73;9.85;;;;;;;;;;4981262;28;20133;-77
2023/03/03 02:37:51;;;;;;;27.42;11.32;;;;;;;;;;5008522;28;20133;-78
2023/03/03 02:40:20;;;;;;;24.00;11.00;;;;;;;;;;4992335;28;20125;-76
2023/03/03 02:42:47;;;;;;;26.70;11.52;;;;;;;;;;5006829;28;20096;-77
2023/03/03 02:45:13;;;;;;;25.20;11.63;;;;;;;;;;4977357;28;20577;-77
2023/03/03 02:47:38;;;;;;;24.13;11.20;;;;;;;;;;4996662;28;20307;-77
2023/03/03 02:50:04;;;;;;;24.75;9.98;;;;;;;;;;4994456;28;20046;-76
2023/03/03 02:52:29;;;;;;;24.58;10.65;;;;;;;;;;5003057;28;20130;-77
2023/03/03 02:54:54;;;;;;;25.10;10.45;;;;;;;;;;4983784;28;20084;-77
2023/03/03 02:57:20;;;;;;;23.77;10.85;;;;;;;;;;4999101;28;20038;-77
2023/03/03 02:59:45;;;;;;;25.42;10.75;;;;;;;;;;4988888;28;20065;-76
2023/03/03 03:02:11;;;;;;;24.77;10.43;;;;;;;;;;5012955;28;20044;-77
2023/03/03 03:04:36;;;;;;;27.15;11.27;;;;;;;;;;4998513;28;20034;-77
2023/03/03 03:07:02;;;;;;;23.95;9.95;;;;;;;;;;4994470;28;20085;-77
2023/03/03 03:09:27;;;;;;;27.98;10.88;;;;;;;;;;4991770;28;20406;-77
2023/03/03 03:11:53;;;;;;;27.02;11.30;;;;;;;;;;4998116;28;20908;-77
2023/03/03 03:14:18;;;;;;;27.50;12.43;;;;;;;;;;5001175;28;20803;-76
2023/03/03 03:16:43;;;;;;;27.15;11.20;;;;;;;;;;4994646;28;20556;-76
2023/03/03 03:19:09;;;;;;;28.08;11.30;;;;;;;;;;5003237;28;20406;-77
2023/03/03 03:21:34;;;;;;;28.00;11.48;;;;;;;;;;5001451;28;20037;-77
2023/03/03 03:24:00;;;;;;;26.38;10.95;;;;;;;;;;5003924;28;20042;-76
2023/03/03 03:26:26;;;;;;;28.67;11.48;;;;;;;;;;5001514;28;20507;-77
2023/03/03 03:28:51;;;;;;;25.00;10.52;;;;;;;;;;4987308;28;20046;-77
2023/03/03 03:31:18;;;;;;;27.55;11.20;;;;;;;;;;5003360;28;20137;-76
2023/03/03 03:33:43;;;;;;;31.25;13.48;;;;;;;;;;4986219;28;20046;-76
2023/03/03 03:36:10;;;;;;;26.17;11.55;;;;;;;;;;4995614;28;20437;-77
2023/03/03 03:38:36;;;;;;;28.90;11.38;;;;;;;;;;5004670;28;20034;-77
2023/03/03 03:41:02;;;;;;;27.60;11.27;;;;;;;;;;4995233;28;21035;-76
2023/03/03 03:43:28;;;;;;;26.02;11.73;;;;;;;;;;4996421;28;20045;-76
2023/03/03 03:45:53;;;;;;;26.58;10.88;;;;;;;;;;5010921;28;20042;-77
2023/03/03 03:48:19;;;;;;;26.70;10.93;;;;;;;;;;4996513;28;20030;-77
2023/03/03 03:50:49;;;;;;;28.15;11.55;;;;;;;;;;4994828;28;20575;-76
2023/03/03 03:53:15;;;;;;;30.35;11.15;;;;;;;;;;5003984;28;20046;-77
2023/03/03 03:55:40;;;;;;;28.73;12.05;;;;;;;;;;5009348;28;20041;-75
2023/03/03 03:58:05;;;;;;;27.38;10.98;;;;;;;;;;5002600;28;20034;-77
2023/03/03 04:00:31;;;;;;;34.15;12.77;;;;;;;;;;5008880;28;20038;-77
2023/03/03 04:02:56;;;;;;;27.48;10.80;;;;;;;;;;4993698;28;20037;-77
2023/03/03 04:05:22;;;;;;;36.17;13.32;;;;;;;;;;4979065;28;20510;-77
2023/03/03 04:07:47;;;;;;;26.23;10.70;;;;;;;;;;5009944;28;20414;-77
2023/03/03 04:10:13;;;;;;;26.80;11.13;;;;;;;;;;4979761;28;20041;-77
2023/03/03 04:12:38;;;;;;;30.90;11.30;;;;;;;;;;5004071;28;20041;-77
2023/03/03 04:15:09;;;;;;;28.02;10.63;;;;;;;;;;4983310;28;20573;-77
2023/03/03 04:17:35;;;;;;;28.38;11.10;;;;;;;;;;4982894;28;20034;-77
2023/03/03 04:20:01;;;;;;;27.90;10.10;;;;;;;;;;4975751;28;20062;-77
2023/03/03 04:22:27;;;;;;;27.83;10.27;;;;;;;;;;4977381;28;20072;-78
2023/03/03 04:24:52;;;;;;;29.45;11.05;;;;;;;;;;4978097;28;20041;-77
2023/03/03 04:27:18;;;;;;;29.17;11.23;;;;;;;;;;4993883;28;20040;-77
2023/03/03 04:29:43;;;;;;;27.85;11.13;;;;;;;;;;4992997;28;20042;-77
2023/03/03 04:32:08;;;;;;;29.08;10.82;;;;;;;;;;4977414;28;20053;-76
2023/03/03 04:34:34;;;;;;;30.70;11.05;;;;;;;;;;4996139;28;20117;-76
2023/03/03 04:37:00;;;;;;;26.95;10.05;;;;;;;;;;4992306;28;20038;-77
2023/03/03 04:39:27;;;;;;;26.88;10.00;;;;;;;;;;4997508;28;20948;-77
2023/03/03 04:41:52;;;;;;;27.60;9.88;;;;;;;;;;4980574;28;20490;-77
2023/03/03 04:44:17;;;;;;;23.05;10.25;;;;;;;;;;4985833;28;20049;-76
2023/03/03 04:46:43;;;;;;;21.33;8.20;;;;;;;;;;4992474;28;20112;-77
2023/03/03 04:49:09;;;;;;;22.20;8.48;;;;;;;;;;4998834;28;20034;-77
2023/03/03 04:51:34;;;;;;;26.33;9.18;;;;;;;;;;5000119;28;20073;-77
2023/03/03 04:53:59;;;;;;;21.13;8.57;;;;;;;;;;4985151;28;20104;-78
2023/03/03 04:56:25;;;;;;;19.02;7.68;;;;;;;;;;4996660;28;20454;-77
2023/03/03 04:58:51;;;;;;;21.23;8.00;;;;;;;;;;5002307;28;20065;-78
2023/03/03 05:01:18;;;;;;;20.60;8.93;;;;;;;;;;4995043;28;20093;-77
2023/03/03 05:03:44;;;;;;;22.65;8.93;;;;;;;;;;5001239;28;20042;-77
2023/03/03 05:06:09;;;;;;;24.13;9.93;;;;;;;;;;4984714;28;20079;-77
2023/03/03 05:08:34;;;;;;;21.00;8.60;;;;;;;;;;4983659;28;20038;-77
2023/03/03 05:11:00;;;;;;;21.23;9.45;;;;;;;;;;4983614;28;20030;-79
2023/03/03 05:13:28;;;;;;;23.38;10.30;;;;;;;;;;5007419;28;20448;-79
2023/03/03 05:15:55;;;;;;;23.90;8.93;;;;;;;;;;4983435;28;20042;-79
2023/03/03 05:18:22;;;;;;;24.95;10.35;;;;;;;;;;4992202;28;20431;-80
2023/03/03 05:20:49;;;;;;;23.52;9.93;;;;;;;;;;4985438;28;20038;-79
2023/03/03 05:23:14;;;;;;;22.13;9.35;;;;;;;;;;4993469;28;20063;-79
2023/03/03 05:25:42;;;;;;;21.08;9.35;;;;;;;;;;5001403;28;20141;-80
2023/03/03 05:28:08;;;;;;;20.50;9.27;;;;;;;;;;4979956;28;20637;-82
2023/03/03 05:30:34;;;;;;;20.20;8.55;;;;;;;;;;4982148;28;20451;-81
2023/03/03 05:33:00;;;;;;;20.85;8.68;;;;;;;;;;4977683;28;20050;-82
2023/03/03 05:35:25;;;;;;;24.38;8.95;;;;;;;;;;4992710;28;20049;-81
2023/03/03 05:37:51;;;;;;;20.63;9.10;;;;;;;;;;4992140;28;20779;-81
2023/03/03 05:40:17;;;;;;;23.20;9.60;;;;;;;;;;4990819;28;20045;-82
2023/03/03 05:42:43;;;;;;;21.85;8.88;;;;;;;;;;4984775;28;20501;-81
2023/03/03 05:45:09;;;;;;;23.00;9.23;;;;;;;;;;4974067;28;21250;-80
2023/03/03 05:47:34;;;;;;;21.90;9.30;;;;;;;;;;5006363;28;20057;-81
2023/03/03 05:50:00;;;;;;;22.98;8.43;;;;;;;;;;4985564;28;20041;-81
2023/03/03 05:52:25;;;;;;;20.67;7.53;;;;;;;;;;5001222;28;20524;-81
2023/03/03 05:54:50;;;;;;;25.67;9.18;;;;;;;;;;5000330;28;20041;-81
2023/03/03 05:57:16;;;;;;;21.40;8.63;;;;;;;;;;5008682;28;20074;-81
2023/03/03 05:59:41;;;;;;;24.30;8.50;;;;;;;;;;4991620;28;20945;-81
2023/03/03 06:02:06;;;;;;;23.48;8.52;;;;;;;;;;4991884;28;20065;-80
2023/03/03 06:04:32;;;;;;;25.40;9.63;;;;;;;;;;4995927;28;20112;-80
2023/03/03 06:06:58;;;;;;;25.42;8.52;;;;;;;;;;4991068;28;20046;-81
2023/03/03 06:09:23;;;;;;;20.23;8.52;;;;;;;;;;4993468;28;20455;-80
2023/03/03 06:11:48;;;;;;;22.75;9.45;;;;;;;;;;4975812;28;20057;-80
2023/03/03 06:14:14;;;;;;;26.15;9.13;;;;;;;;;;4983670;28;20034;-79
2023/03/03 06:16:39;;;;;;;23.50;7.80;;;;;;;;;;4983021;28;20050;-81
2023/03/03 06:19:05;;;;;;;21.35;8.88;;;;;;;;;;5001374;28;20049;-81
2023/03/03 06:21:30;;;;;;;23.42;9.82;;;;;;;;;;4994999;28;20030;-81
2023/03/03 06:23:56;;;;;;;22.73;8.77;;;;;;;;;;4979291;28;20034;-81
2023/03/03 06:26:22;;;;;;;21.90;9.20;;;;;;;;;;5003537;28;20073;-81
2023/03/03 06:28:49;;;;;;;23.73;8.68;;;;;;;;;;4995219;28;20042;-81
2023/03/03 06:31:14;;;;;;;21.07;8.77;;;;;;;;;;4996193;28;20034;-81
2023/03/03 06:33:41;;;;;;;22.13;8.23;;;;;;;;;;4977815;28;20065;-81
2023/03/03 06:36:07;;;;;;;18.90;8.07;;;;;;;;;;4994496;28;20775;-81
2023/03/03 06:38:32;;;;;;;20.77;8.27;;;;;;;;;;4988204;28;20030;-81
2023/03/03 06:41:00;;;;;;;18.60;8.05;;;;;;;;;;4998781;28;20157;-81
2023/03/03 06:43:26;;;;;;;18.05;7.43;;;;;;;;;;5003976;28;20092;-81
2023/03/03 06:45:51;;;;;;;20.08;8.18;;;;;;;;;;5008209;28;20038;-81
2023/03/03 06:48:16;;;;;;;20.08;7.97;;;;;;;;;;5011330;28;20070;-81
2023/03/03 06:50:42;;;;;;;21.13;7.82;;;;;;;;;;4987711;28;20041;-81
2023/03/03 06:53:13;;;;;;;22.20;7.90;;;;;;;;;;4975483;28;20066;-81
2023/03/03 06:55:38;;;;;;;21.67;8.73;;;;;;;;;;4980297;28;20045;-80
2023/03/03 06:58:08;;;;;;;25.30;9.05;;;;;;;;;;4981605;28;20158;-80
2023/03/03 07:00:34;;;;;;;26.63;9.98;;;;;;;;;;5003688;28;20030;-80
2023/03/03 07:03:06;;;;;;;23.10;8.57;;;;;;;;;;4988379;28;20044;-80
2023/03/03 07:05:33;;;;;;;26.50;8.50;;;;;;;;;;4977569;28;20109;-80
2023/03/03 07:07:58;;;;;;;27.02;9.95;;;;;;;;;;5008062;28;20964;-80
2023/03/03 07:10:29;;;;;;;22.55;8.23;;;;;;;;;;4995918;28;20125;-80
2023/03/03 07:12:57;;;;;;;22.73;9.43;;;;;;;;;;4980220;28;20061;-80
2023/03/03 07:15:33;;;;;;;20.80;8.35;;;;;;;;;;4994549;28;20035;-80
2023/03/03 07:18:02;;;;;;;23.25;8.20;;;;;;;;;;4981014;28;20502;-79
2023/03/03 07:20:32;;;;;;;19.13;7.65;;;;;;;;;;4996919;28;20034;-80
2023/03/03 07:22:57;;;;;;;22.80;7.47;;;;;;;;;;4985816;28;20568;-80
2023/03/03 07:25:30;;;;;;;20.45;7.78;;;;;;;;;;4985387;28;20038;-80
2023/03/03 07:28:26;;;;;;;23.27;8.18;;;;;;;;;;4982827;28;20069;-79
2023/03/03 07:30:52;;;;;;;17.55;6.55;;;;;;;;;;4977446;28;20652;-79
2023/03/03 07:33:24;;;;;;;21.77;8.07;;;;;;;;;;4984751;28;20042;-80
2023/03/03 07:35:51;;;;;;;21.52;8.02;;;;;;;;;;4992984;28;20519;-80
2023/03/03 07:38:52;;;;;;;25.05;8.75;;;;;;;;;;4987460;28;20113;-80
2023/03/03 07:41:24;;;;;;;21.40;8.48;;;;;;;;;;4902473;29;20544;-80
2023/03/03 07:43:54;;;;;;;21.92;7.95;;;;;;;;;;4974483;28;20506;-80
2023/03/03 07:46:35;;;;;;;23.55;8.23;;;;;;;;;;4994748;28;20046;-80
2023/03/03 07:49:11;;;;;;;19.90;8.30;;;;;;;;;;4991665;28;20545;-80
2023/03/03 07:51:40;;;;;;;20.17;8.18;;;;;;;;;;4993451;28;20039;-80
2023/03/03 07:54:27;;;;;;;24.60;8.32;;;;;;;;;;4980879;28;20046;-80
2023/03/03 07:57:16;;;;;;;19.92;7.70;;;;;;;;;;5010544;28;20041;-80
2023/03/03 07:59:47;;;;;;;21.23;8.23;;;;;;;;;;4993980;28;20023;-80
2023/03/03 08:02:28;;;;;;;22.48;7.47;;;;;;;;;;4992355;28;20132;-79
2023/03/03 08:04:54;;;;;;;19.48;8.38;;;;;;;;;;5008907;28;20092;-80
2023/03/03 08:07:21;;;;;;;19.88;7.50;;;;;;;;;;4994555;28;20429;-80
2023/03/03 08:09:50;;;;;;;;;;;;;;;;;;5009337;28;20381;-79
2023/03/03 08:12:37;;;;;;;16.75;5.85;;;;;;;;;;5008228;28;19925;-80
2023/03/03 08:15:23;;;;;;;14.35;5.72;;;;;;;;;;5001227;28;20603;-79
2023/03/03 08:17:50;;;;;;;15.63;6.45;;;;;;;;;;4981068;28;20038;-79
2023/03/03 08:20:28;;;;;;;16.13;7.15;;;;;;;;;;4976186;28;20076;-79
2023/03/03 08:22:53;;;;;;;;;;;;;;;;;;5008373;28;20096;-79
2023/03/03 08:25:19;;;;;;;13.32;5.38;;;;;;;;;;5003422;28;19920;-80
2023/03/03 08:27:44;;;;;;;12.80;5.63;;;;;;;;;;4986097;28;20187;-79
2023/03/03 08:30:10;;;;;;;16.42;5.82;;;;;;;;;;5003785;28;20045;-80
2023/03/03 08:32:35;;;;;;;15.18;6.05;;;;;;;;;;4983851;28;20041;-80
2023/03/03 08:35:01;;;;;;;15.57;5.47;;;;;;;;;;5002319;28;20417;-79
2023/03/03 08:37:26;;;;;;;14.63;5.45;;;;;;;;;;4984747;28;20034;-80
2023/03/03 08:39:51;;;;;;;13.93;5.97;;;;;;;;;;4985145;28;20042;-80
2023/03/03 08:42:17;;;;;;;14.85;5.70;;;;;;;;;;4994741;28;20046;-80
2023/03/03 08:44:42;;;;;;;12.93;5.32;;;;;;;;;;4985158;28;20046;-80
2023/03/03 08:47:08;;;;;;;16.33;5.93;;;;;;;;;;4984020;28;20026;-80
2023/03/03 08:49:33;;;;;;;14.68;6.10;;;;;;;;;;5000778;28;20030;-80
2023/03/03 08:51:59;;;;;;;17.15;6.28;;;;;;;;;;4983230;28;20063;-80
2023/03/03 08:54:25;;;;;;;17.30;6.53;;;;;;;;;;4980666;28;20605;-79
2023/03/03 08:56:50;;;;;;;14.27;6.88;;;;;;;;;;4984636;28;20521;-79
2023/03/03 08:59:16;;;;;;;13.73;5.18;;;;;;;;;;4985288;28;20044;-79
2023/03/03 09:01:43;;;;;;;13.23;4.95;;;;;;;;;;4996196;28;20633;-79
2023/03/03 09:04:09;;;;;;;14.88;5.43;;;;;;;;;;4999858;28;20030;-80
2023/03/03 09:06:34;;;;;;;10.88;4.55;;;;;;;;;;5000761;28;20664;-80
2023/03/03 09:09:00;;;;;;;14.52;5.50;;;;;;;;;;4993597;28;20506;-79
2023/03/03 09:11:28;;;;;;;11.93;4.95;;;;;;;;;;4984478;28;20113;-79
2023/03/03 09:14:13;;;;;;;13.57;5.43;;;;;;;;;;4983659;28;20049;-80
2023/03/03 09:16:44;;;;;;;12.02;5.00;;;;;;;;;;4992360;28;20494;-80
2023/03/03 09:19:29;;;;;;;13.38;4.80;;;;;;;;;;4995564;28;20498;-80
2023/03/03 09:21:57;;;;;;;13.75;5.70;;;;;;;;;;4992947;28;20049;-80
2023/03/03 09:24:30;;;;;;;14.77;5.47;;;;;;;;;;4984596;28;20042;-80
2023/03/03 09:26:57;;;;;;;14.35;5.13;;;;;;;;;;4977379;28;20034;-80
2023/03/03 09:29:28;;;;;;;14.15;6.03;;;;;;;;;;4985771;28;20125;-80
2023/03/03 09:31:58;;;;;;;15.70;6.30;;;;;;;;;;4999607;28;20765;-80
2023/03/03 09:34:35;;;;;;;14.25;5.28;;;;;;;;;;4976054;28;20033;-80
2023/03/03 09:37:14;;;;;;;10.63;5.00;;;;;;;;;;4992214;28;20041;-80
2023/03/03 09:39:39;;;;;;;12.82;5.20;;;;;;;;;;4993081;28;20026;-79
2023/03/03 09:42:05;;;;;;;10.20;4.13;;;;;;;;;;5005023;28;20092;-79
2023/03/03 09:44:48;;;;;;;12.45;4.97;;;;;;;;;;5010169;28;20049;-80
2023/03/03 09:47:22;;;;;;;11.32;4.97;;;;;;;;;;5008428;28;20058;-80
2023/03/03 09:50:06;;;;;;;10.57;5.15;;;;;;;;;;5008409;28;20046;-80
2023/03/03 09:52:40;;;;;;;14.13;4.90;;;;;;;;;;5007172;28;20093;-80
2023/03/03 09:55:24;;;;;;;11.40;4.90;;;;;;;;;;4974679;28;20037;-80
2023/03/03 09:57:57;;;;;;;14.35;5.78;;;;;;;;;;5008106;28;20049;-80
2023/03/03 10:00:43;;;;;;;11.15;5.03;;;;;;;;;;5006774;28;20033;-80
2023/03/03 10:03:39;;;;;;;12.70;5.13;;;;;;;;;;4991836;28;20042;-80
2023/03/03 10:06:17;;;;;;;12.35;5.72;;;;;;;;;;4990176;28;20038;-80
2023/03/03 10:08:59;;;;;;;10.65;5.05;;;;;;;;;;5001299;28;20043;-80
2023/03/03 10:11:43;;;;;;;12.77;5.35;;;;;;;;;;5007354;28;20022;-80
2023/03/03 10:14:21;;;;;;;12.38;6.00;;;;;;;;;;4990031;28;20450;-80
2023/03/03 10:17:04;;;;;;;12.88;5.32;;;;;;;;;;4993626;28;20502;-80
2023/03/03 10:19:37;;;;;;;11.50;4.55;;;;;;;;;;5007546;28;20042;-79
2023/03/03 10:22:18;;;;;;;13.15;5.15;;;;;;;;;;5006236;28;20573;-80
2023/03/03 10:25:01;;;;;;;14.88;5.55;;;;;;;;;;5009959;28;20050;-80
2023/03/03 10:27:36;;;;;;;13.05;5.47;;;;;;;;;;5006646;28;20038;-80
2023/03/03 10:30:26;;;;;;;15.40;5.85;;;;;;;;;;5005208;28;20069;-79
2023/03/03 10:32:53;;;;;;;11.25;4.97;;;;;;;;;;5000519;28;20088;-80
2023/03/03 10:35:31;;;;;;;;;;;;;;;;;;5008769;28;20445;-80
2023/03/03 10:37:56;;;;;;;;;;;;;;;;;;4994457;28;19913;-80
2023/03/03 10:40:24;;;;;;;14.18;5.63;;;;;;;;;;5008773;28;19917;-80
2023/03/03 10:43:15;;;;;;;12.90;5.70;;;;;;;;;;5008533;28;20046;-80
2023/03/03 10:46:02;;;;;;;15.48;6.03;;;;;;;;;;5008716;28;20879;-80
2023/03/03 10:48:31;;;;;;;16.48;6.47;;;;;;;;;;5008422;28;20521;-79
2023/03/03 10:51:18;;;;;;;14.70;6.07;;;;;;;;;;4992399;28;20038;-80
2023/03/03 10:53:53;;;;;;;13.30;5.65;;;;;;;;;;5000009;28;20126;-80
2023/03/03 10:56:33;;;;;;;14.32;5.95;;;;;;;;;;5006647;28;20520;-79
2023/03/03 10:59:30;;;;;;;13.50;5.60;;;;;;;;;;4996314;28;20038;-79
2023/03/03 11:01:57;;;;;;;;;;;;;;;;;;4993276;28;20052;-79
2023/03/03 11:04:39;;;;;;;16.63;6.20;;;;;;;;;;5001539;28;19921;-78
2023/03/03 11:07:11;;;;;;;17.42;6.13;;;;;;;;;;5012061;28;20404;-79
2023/03/03 11:09:58;;;;;;;16.83;6.97;;;;;;;;;;4981186;28;20034;-79
2023/03/03 11:12:46;;;;;;;16.17;7.03;;;;;;;;;;4996047;28;20525;-81
2023/03/03 11:15:39;;;;;;;18.48;7.63;;;;;;;;;;5008807;28;20042;-79
2023/03/03 11:18:29;;;;;;;17.63;6.75;;;;;;;;;;5003757;28;20042;-79
2023/03/03 11:21:19;;;;;;;24.77;7.78;;;;;;;;;;4995645;28;20117;-79
2023/03/03 11:23:54;;;;;;;22.98;8.00;;;;;;;;;;5010723;28;20393;-79
2023/03/03 11:26:29;;;;;;;16.75;6.95;;;;;;;;;;4980341;28;20038;-79
2023/03/03 11:29:21;;;;;;;21.23;7.03;;;;;;;;;;4995719;28;20070;-79
2023/03/03 11:32:05;;;;;;;15.68;6.65;;;;;;;;;;5012437;28;20060;-79
2023/03/03 11:34:52;;;;;;;17.77;6.97;;;;;;;;;;4998450;28;20046;-79
2023/03/03 11:37:34;;;;;;;18.83;7.63;;;;;;;;;;5007258;28;20030;-80
2023/03/03 11:40:06;;;;;;;18.08;7.47;;;;;;;;;;4978456;28;20121;-79
2023/03/03 11:42:41;;;;;;;18.88;7.40;;;;;;;;;;4987277;28;20441;-79
2023/03/03 11:45:18;;;;;;;19.85;8.25;;;;;;;;;;5010470;28;20521;-80
2023/03/03 11:47:56;;;;;;;20.13;8.00;;;;;;;;;;4994294;28;20034;-79
2023/03/03 11:50:25;;;;;;;20.85;7.72;;;;;;;;;;4985280;28;20394;-79
2023/03/03 11:52:59;;;;;;;19.38;7.70;;;;;;;;;;4976874;28;20038;-79
2023/03/03 11:55:32;;;;;;;20.75;7.78;;;;;;;;;;4977802;28;20441;-79
2023/03/03 11:58:04;;;;;;;18.27;7.28;;;;;;;;;;4993872;28;20037;-79
2023/03/03 12:00:57;;;;;;;18.10;7.43;;;;;;;;;;4994522;28;20038;-80
2023/03/03 12:03:30;;;;;;;20.58;7.95;;;;;;;;;;5008528;28;20489;-79
2023/03/03 12:05:55;;;;;;;20.38;7.80;;;;;;;;;;5005584;28;20042;-79
2023/03/03 12:08:56;;;;;;;16.70;7.38;;;;;;;;;;5010090;28;20044;-80
2023/03/03 12:11:27;;;;;;;16.10;7.15;;;;;;;;;;4981222;28;20440;-79
2023/03/03 12:13:59;;;;;;;18.27;8.40;;;;;;;;;;4980990;28;20047;-79
2023/03/03 12:16:38;;;;;;;18.15;8.38;;;;;;;;;;4990673;28;20061;-80
2023/03/03 12:19:25;;;;;;;20.63;7.88;;;;;;;;;;4995054;28;20034;-79
2023/03/03 12:22:08;;;;;;;18.00;7.90;;;;;;;;;;4995436;28;20049;-80
2023/03/03 12:24:52;;;;;;;19.92;8.18;;;;;;;;;;5009247;28;20351;-81
2023/03/03 12:27:24;;;;;;;22.63;8.98;;;;;;;;;;5010826;28;20034;-79
2023/03/03 12:29:56;;;;;;;21.05;8.27;;;;;;;;;;5008688;28;20049;-79
2023/03/03 12:32:46;;;;;;;19.92;8.40;;;;;;;;;;5009038;28;20498;-80
2023/03/03 12:35:27;;;;;;;17.83;7.80;;;;;;;;;;5008435;28;20169;-78
2023/03/03 12:38:02;;;;;;;22.50;8.55;;;;;;;;;;5008100;28;20030;-79
2023/03/03 12:40:33;;;;;;;21.08;8.45;;;;;;;;;;5009663;28;23142;-80
2023/03/03 12:43:17;;;;;;;19.88;8.52;;;;;;;;;;4983512;28;20034;-79
2023/03/03 12:46:13;;;;;;;20.10;9.07;;;;;;;;;;5010269;28;20092;-78
2023/03/03 12:48:42;;;;;;;19.25;8.15;;;;;;;;;;5002177;28;20482;-80
2023/03/03 12:51:36;;;;;;;20.80;8.45;;;;;;;;;;4992257;28;20040;-79
2023/03/03 12:54:39;;;;;;;16.73;7.78;;;;;;;;;;4996423;28;20043;-79
2023/03/03 12:57:05;;;;;;;19.77;8.77;;;;;;;;;;4982929;28;20390;-79
2023/03/03 12:59:39;;;;;;;20.05;7.53;;;;;;;;;;5008224;28;20043;-78
2023/03/03 13:02:35;;;;;;;18.85;7.43;;;;;;;;;;5006868;28;20693;-79
2023/03/03 13:05:38;;;;;;;17.42;7.88;;;;;;;;;;5006753;28;20505;-79
2023/03/03 13:08:07;;;;;;;25.02;8.73;;;;;;;;;;5009102;28;20143;-79
2023/03/03 13:10:40;;;;;;;22.48;9.00;;;;;;;;;;5007189;28;20114;-79
2023/03/03 13:13:24;;;;;;;21.00;9.05;;;;;;;;;;5006487;28;20057;-80
2023/03/03 13:16:01;;;;;;;20.90;8.20;;;;;;;;;;4994946;28;20124;-79
2023/03/03 13:18:49;;;;;;;22.05;7.90;;;;;;;;;;4980389;28;20044;-79
2023/03/03 13:21:20;;;;;;;15.90;7.30;;;;;;;;;;4988386;28;20042;-79
2023/03/03 13:24:10;;;;;;;18.23;8.07;;;;;;;;;;4994832;28;20426;-79
2023/03/03 13:26:40;;;;;;;19.45;8.75;;;;;;;;;;5007402;28;20031;-80
2023/03/03 13:29:18;;;;;;;20.92;8.23;;;;;;;;;;4997663;28;20046;-80
2023/03/03 13:32:17;;;;;;;19.77;8.52;;;;;;;;;;5007908;28;20053;-81
2023/03/03 13:34:52;;;;;;;19.13;8.25;;;;;;;;;;5000815;28;20112;-79
2023/03/03 13:37:25;;;;;;;20.77;8.82;;;;;;;;;;4994938;28;20565;-79
2023/03/03 13:40:00;;;;;;;20.10;8.77;;;;;;;;;;4992946;28;20060;-80
2023/03/03 13:42:31;;;;;;;23.55;8.88;;;;;;;;;;4990281;28;20485;-79
2023/03/03 13:44:56;;;;;;;19.90;9.10;;;;;;;;;;5006475;28;20053;-79
2023/03/03 13:47:57;;;;;;;16.77;8.30;;;;;;;;;;4984645;28;20041;-79
2023/03/03 13:50:29;;;;;;;19.10;8.70;;;;;;;;;;4975905;28;20038;-79
2023/03/03 13:53:13;;;;;;;19.85;8.48;;;;;;;;;;4976783;28;20453;-79
2023/03/03 13:55:41;;;;;;;19.23;8.38;;;;;;;;;;5007687;28;20065;-79
2023/03/03 13:58:37;;;;;;;20.65;9.30;;;;;;;;;;4992369;28;20038;-79
2023/03/03 14:01:31;;;;;;;20.00;9.02;;;;;;;;;;5007587;28;20057;-80
2023/03/03 14:04:04;;;;;;;17.70;7.70;;;;;;;;;;5006507;28;20049;-80
2023/03/03 14:06:29;;;;;;;15.75;7.45;;;;;;;;;;4993024;28;20759;-80
2023/03/03 14:09:14;;;;;;;19.02;7.82;;;;;;;;;;4975372;28;20053;-79
2023/03/03 14:11:53;;;;;;;17.55;7.70;;;;;;;;;;4981881;28;20125;-79
2023/03/03 14:14:43;;;;;;;19.17;8.23;;;;;;;;;;4995088;28;20521;-79
2023/03/03 14:17:26;;;;;;;15.48;7.35;;;;;;;;;;4983191;28;20596;-86
2023/03/03 14:20:02;;;;;;;18.17;8.45;;;;;;;;;;4994553;28;20042;-84
2023/03/03 14:22:34;;;;;;;17.30;7.78;;;;;;;;;;5010198;28;20069;-85
2023/03/03 14:25:10;;;;;;;14.98;7.10;;;;;;;;;;5008347;28;20604;-86
2023/03/03 14:28:00;;;;;;;17.27;8.43;;;;;;;;;;4990016;28;20043;-85
2023/03/03 14:30:53;;;;;;;15.30;7.25;;;;;;;;;;4981714;28;20038;-84
2023/03/03 14:33:20;;;;;;;16.20;7.70;;;;;;;;;;4986751;28;20041;-86
2023/03/03 14:35:51;;;;;;;20.65;8.00;;;;;;;;;;4992594;28;20048;-86
2023/03/03 14:38:19;;;;;;;17.05;8.25;;;;;;;;;;5009222;28;20482;-85
2023/03/03 14:40:44;;;;;;;;;;;;;;;;;;4986679;28;20041;-86
2023/03/03 14:43:35;;;;;;;16.65;7.45;;;;;;;;;;4999975;28;19917;-86
2023/03/03 14:46:29;;;;;;;19.02;8.07;;;;;;;;;;4986889;28;20490;-84
2023/03/03 14:48:58;;;;;;;16.20;7.78;;;;;;;;;;5010544;28;20030;-85
2023/03/03 14:51:27;;;;;;;16.35;7.57;;;;;;;;;;5011459;28;20485;-86
2023/03/03 14:53:54;;;;;;;18.38;8.43;;;;;;;;;;4999959;28;20042;-87
2023/03/03 14:56:23;;;;;;;16.92;8.68;;;;;;;;;;4990772;28;20038;-87